createdAt,value
2022-08-28T00:00:48.331Z,16.3
2022-08-28T00:01:58.710Z,16.3
2022-08-28T00:03:08.563Z,16.3
2022-08-28T00:05:28.812Z,16.3
2022-08-28T00:06:37.931Z,16.3
2022-08-28T00:07:48.049Z,16.3
2022-08-28T00:08:58.172Z,16.3
2022-08-28T00:10:08.295Z,16.3
2022-08-28T00:12:28.528Z,16.3
2022-08-28T00:13:38.639Z,16.3
2022-08-28T00:14:48.760Z,16.3
2022-08-28T00:15:58.881Z,16.3
2022-08-28T00:17:08.994Z,16.3
2022-08-28T00:18:19.119Z,16.3
2022-08-28T00:19:29.227Z,16.3
2022-08-28T00:20:39.352Z,16.3
2022-08-28T00:21:48.473Z,16.2
2022-08-28T00:22:58.600Z,16.2
2022-08-28T00:24:08.727Z,16.2
2022-08-28T00:25:18.832Z,16.2
2022-08-28T00:26:28.954Z,16.2
2022-08-28T00:27:39.069Z,16.2
2022-08-28T00:28:49.181Z,16.2
2022-08-28T00:29:59.303Z,16.2
2022-08-28T00:31:09.417Z,16.2
2022-08-28T00:32:19.538Z,16.2
2022-08-28T00:33:29.656Z,16.2
2022-08-28T00:34:39.784Z,16.3
2022-08-28T00:35:49.886Z,16.2
2022-08-28T00:36:59.032Z,16.2
2022-08-28T00:38:09.135Z,16.2
2022-08-28T00:40:29.370Z,16.2
2022-08-28T00:41:39.492Z,16.2
2022-08-28T00:42:49.617Z,16.2
2022-08-28T00:43:59.999Z,16.2
2022-08-28T00:45:09.842Z,16.2
2022-08-28T00:46:19.963Z,16.2
2022-08-28T00:47:30.082Z,16.2
2022-08-28T00:48:40.195Z,16.2
2022-08-28T00:49:50.324Z,16.2
2022-08-28T00:51:00.442Z,16.2
2022-08-28T00:52:09.576Z,16.2
2022-08-28T00:53:19.684Z,16.1
2022-08-28T00:54:29.804Z,16.1
2022-08-28T00:55:39.929Z,16.1
2022-08-28T00:56:50.043Z,16.1
2022-08-28T00:58:00.158Z,16.1
2022-08-28T00:59:10.531Z,16.1
2022-08-28T01:00:20.388Z,16.1
2022-08-28T01:01:30.506Z,16.1
2022-08-28T01:02:40.622Z,16.1
2022-08-28T01:03:50.748Z,16.1
2022-08-28T01:05:00.858Z,16
2022-08-28T01:06:10.982Z,16
2022-08-28T01:08:30.230Z,15.9
2022-08-28T01:09:40.354Z,16
2022-08-28T01:10:50.465Z,16
2022-08-28T01:12:00.592Z,16
2022-08-28T01:13:10.701Z,16
2022-08-28T01:14:20.825Z,16
2022-08-28T01:15:30.934Z,16.1
2022-08-28T01:16:41.054Z,16.2
2022-08-28T01:17:51.182Z,16.2
2022-08-28T01:19:01.292Z,16.2
2022-08-28T01:20:11.686Z,16.2
2022-08-28T01:21:21.524Z,16.2
2022-08-28T01:22:30.657Z,16.1
2022-08-28T01:23:40.779Z,16.1
2022-08-28T01:24:50.886Z,16.1
2022-08-28T01:26:01.014Z,16.1
2022-08-28T01:27:11.125Z,16.1
2022-08-28T01:29:31.624Z,16.2
2022-08-28T01:30:41.784Z,16.3
2022-08-28T01:31:51.585Z,16.3
2022-08-28T01:33:01.717Z,16.3
2022-08-28T01:34:11.825Z,16.3
2022-08-28T01:35:21.933Z,16.3
2022-08-28T01:36:32.056Z,16.3
2022-08-28T01:37:41.460Z,16.3
2022-08-28T01:38:51.318Z,16.3
2022-08-28T01:40:01.426Z,16.2
2022-08-28T01:41:11.552Z,16.2
2022-08-28T01:42:21.661Z,16.2
2022-08-28T01:43:31.784Z,16.2
2022-08-28T01:44:41.906Z,16.3
2022-08-28T01:45:52.013Z,16.3
2022-08-28T01:47:02.134Z,16.3
2022-08-28T01:48:12.253Z,16.4
2022-08-28T01:49:22.633Z,16.4
2022-08-28T01:50:32.487Z,16.4
2022-08-28T01:51:42.600Z,16.4
2022-08-28T01:52:51.740Z,16.5
2022-08-28T01:54:01.848Z,16.5
2022-08-28T01:55:11.973Z,16.5
2022-08-28T01:56:22.358Z,16.5
2022-08-28T01:57:32.209Z,16.5
2022-08-28T01:58:41.346Z,16.5
2022-08-28T01:59:51.476Z,16.5
2022-08-28T02:01:01.585Z,16.6
2022-08-28T02:02:11.970Z,16.5
2022-08-28T02:03:21.817Z,16.6
2022-08-28T02:04:32.206Z,16.6
2022-08-28T02:05:42.316Z,16.6
2022-08-28T02:06:52.166Z,16.6
2022-08-28T02:08:02.552Z,16.6
2022-08-28T02:09:12.400Z,16.6
2022-08-28T02:10:22.530Z,16.6
2022-08-28T02:11:32.643Z,16.6
2022-08-28T02:12:42.750Z,16.6
2022-08-28T02:13:51.903Z,16.6
2022-08-28T02:15:02.010Z,16.7
2022-08-28T02:16:12.134Z,16.7
2022-08-28T02:18:32.364Z,16.7
2022-08-28T02:19:42.491Z,16.7
2022-08-28T02:20:52.595Z,16.7
2022-08-28T02:22:02.725Z,16.7
2022-08-28T02:23:12.830Z,16.7
2022-08-28T02:25:33.335Z,16.7
2022-08-28T02:26:43.454Z,16.7
2022-08-28T02:27:53.302Z,16.7
2022-08-28T02:29:02.443Z,16.7
2022-08-28T02:30:12.550Z,16.6
2022-08-28T02:32:32.788Z,16.5
2022-08-28T02:33:41.943Z,16.5
2022-08-28T02:34:51.072Z,16.5
2022-08-28T02:36:01.454Z,16.5
2022-08-28T02:37:11.304Z,16.4
2022-08-28T02:38:21.412Z,16.4
2022-08-28T02:39:31.538Z,16.3
2022-08-28T02:40:41.664Z,16.3
2022-08-28T02:41:51.771Z,16.3
2022-08-28T02:43:01.896Z,16.3
2022-08-28T02:44:12.005Z,16.3
2022-08-28T02:45:22.126Z,16.2
2022-08-28T02:46:31.281Z,16.2
2022-08-28T02:47:40.395Z,16.2
2022-08-28T02:48:50.525Z,16.2
2022-08-28T02:50:00.649Z,16.2
2022-08-28T02:51:10.758Z,16.2
2022-08-28T02:52:20.867Z,16.2
2022-08-28T02:53:30.998Z,16.2
2022-08-28T02:54:41.107Z,16.2
2022-08-28T02:55:51.233Z,16.2
2022-08-28T02:57:01.338Z,16.2
2022-08-28T02:58:11.463Z,16.2
2022-08-28T03:00:31.691Z,16.4
2022-08-28T03:01:41.819Z,16.4
2022-08-28T03:02:50.946Z,16.3
2022-08-28T03:04:01.068Z,16.3
2022-08-28T03:05:11.450Z,16.3
2022-08-28T03:06:21.294Z,16.3
2022-08-28T03:07:31.430Z,16.3
2022-08-28T03:08:41.536Z,16.4
2022-08-28T03:09:51.658Z,16.4
2022-08-28T03:11:01.775Z,16.4
2022-08-28T03:12:11.901Z,16.4
2022-08-28T03:14:32.129Z,16.4
2022-08-28T03:15:42.235Z,16.4
2022-08-28T03:16:52.363Z,16.5
2022-08-28T03:18:01.495Z,16.6
2022-08-28T03:19:11.877Z,16.6
2022-08-28T03:20:21.729Z,16.6
2022-08-28T03:21:31.846Z,16.7
2022-08-28T03:22:41.968Z,16.7
2022-08-28T03:23:52.348Z,16.8
2022-08-28T03:25:02.192Z,16.8
2022-08-28T03:26:12.320Z,16.8
2022-08-28T03:27:22.443Z,16.8
2022-08-28T03:28:32.553Z,16.9
2022-08-28T03:30:53.055Z,16.9
2022-08-28T03:32:02.915Z,17
2022-08-28T03:33:12.034Z,17
2022-08-28T03:35:32.270Z,17
2022-08-28T03:36:41.425Z,17
2022-08-28T03:37:50.561Z,17
2022-08-28T03:39:00.670Z,17
2022-08-28T03:40:10.800Z,17.1
2022-08-28T03:42:31.036Z,17.1
2022-08-28T03:43:41.149Z,17.1
2022-08-28T03:44:51.252Z,17.1
2022-08-28T03:46:01.380Z,17.1
2022-08-28T03:47:11.504Z,17.2
2022-08-28T03:49:31.995Z,17.2
2022-08-28T03:50:41.847Z,17.2
2022-08-28T03:51:51.004Z,17.2
2022-08-28T03:53:00.390Z,17.3
2022-08-28T03:54:10.241Z,17.3
2022-08-28T03:55:20.363Z,17.3
2022-08-28T03:56:30.492Z,17.3
2022-08-28T03:57:40.599Z,17.3
2022-08-28T03:58:50.984Z,17.3
2022-08-28T04:00:00.834Z,17.3
2022-08-28T04:01:11.217Z,17.3
2022-08-28T04:02:21.075Z,17.3
2022-08-28T04:03:31.183Z,17.3
2022-08-28T04:04:40.340Z,17.4
2022-08-28T04:05:49.469Z,17.3
2022-08-28T04:06:59.588Z,17.3
2022-08-28T04:08:09.705Z,17.3
2022-08-28T04:10:29.930Z,17.3
2022-08-28T04:11:40.061Z,17.3
2022-08-28T04:12:50.163Z,17.3
2022-08-28T04:14:00.290Z,17.3
2022-08-28T04:15:10.399Z,17.3
2022-08-28T04:16:20.527Z,17.3
2022-08-28T04:17:30.632Z,17.3
2022-08-28T04:18:40.754Z,17.3
2022-08-28T04:19:50.872Z,17.3
2022-08-28T04:21:00.276Z,17.3
2022-08-28T04:22:10.127Z,17.3
2022-08-28T04:23:20.506Z,17.3
2022-08-28T04:24:30.361Z,17.3
2022-08-28T04:25:40.469Z,17.3
2022-08-28T04:26:50.853Z,17.3
2022-08-28T04:28:00.706Z,17.2
2022-08-28T04:29:10.831Z,17.2
2022-08-28T04:30:19.966Z,17.3
2022-08-28T04:31:29.108Z,17.2
2022-08-28T04:32:39.493Z,17.2
2022-08-28T04:33:49.608Z,17.2
2022-08-28T04:34:59.452Z,17.2
2022-08-28T04:36:09.581Z,17.2
2022-08-28T04:37:19.962Z,17.2
2022-08-28T04:38:30.071Z,17.2
2022-08-28T04:39:39.921Z,17.1
2022-08-28T04:40:50.052Z,17.1
2022-08-28T04:42:00.162Z,17.1
2022-08-28T04:43:10.278Z,17.1
2022-08-28T04:45:30.527Z,17.1
2022-08-28T04:46:39.650Z,17.1
2022-08-28T04:47:49.765Z,17.2
2022-08-28T04:49:00.144Z,17.2
2022-08-28T04:50:10.262Z,17.2
2022-08-28T04:51:20.114Z,17.2
2022-08-28T04:52:30.243Z,17.2
2022-08-28T04:53:40.350Z,17.2
2022-08-28T04:54:50.473Z,17.3
2022-08-28T04:56:00.597Z,17.3
2022-08-28T04:57:10.707Z,17.3
2022-08-28T04:58:20.822Z,17.3
2022-08-28T04:59:30.947Z,17.3
2022-08-28T05:00:41.054Z,17.3
2022-08-28T05:01:50.191Z,17.3
2022-08-28T05:03:00.310Z,17.3
2022-08-28T05:04:10.424Z,17.3
2022-08-28T05:05:20.551Z,17.3
2022-08-28T05:06:30.659Z,17.4
2022-08-28T05:07:40.782Z,17.4
2022-08-28T05:08:50.890Z,17.4
2022-08-28T05:10:01.019Z,17.5
2022-08-28T05:11:11.138Z,17.5
2022-08-28T05:12:21.244Z,17.5
2022-08-28T05:13:31.371Z,17.5
2022-08-28T05:14:41.479Z,17.5
2022-08-28T05:15:51.601Z,17.5
2022-08-28T05:17:00.742Z,17.5
2022-08-28T05:18:10.853Z,17.6
2022-08-28T05:20:31.086Z,17.6
2022-08-28T05:21:41.477Z,17.6
2022-08-28T05:22:51.590Z,17.7
2022-08-28T05:24:01.444Z,17.6
2022-08-28T05:25:11.829Z,17.7
2022-08-28T05:26:21.675Z,17.7
2022-08-28T05:27:31.800Z,17.7
2022-08-28T05:28:41.909Z,17.6
2022-08-28T05:29:52.030Z,17.7
2022-08-28T05:31:02.434Z,17.7
2022-08-28T05:32:11.277Z,17.7
2022-08-28T05:33:21.405Z,17.7
2022-08-28T05:34:31.513Z,17.7
2022-08-28T05:35:41.635Z,17.8
2022-08-28T05:36:51.760Z,17.8
2022-08-28T05:38:01.872Z,17.8
2022-08-28T05:39:11.997Z,17.8
2022-08-28T05:41:32.225Z,17.8
2022-08-28T05:42:42.352Z,17.8
2022-08-28T05:43:52.457Z,17.8
2022-08-28T05:45:02.839Z,17.8
2022-08-28T05:46:12.696Z,17.8
2022-08-28T05:47:21.838Z,17.8
2022-08-28T05:48:32.207Z,17.8
2022-08-28T05:49:42.069Z,17.9
2022-08-28T05:50:52.446Z,17.9
2022-08-28T05:52:02.299Z,17.9
2022-08-28T05:53:11.436Z,17.9
2022-08-28T05:54:21.000Z,17.9
2022-08-28T05:55:31.667Z,17.9
2022-08-28T05:56:41.790Z,17.9
2022-08-28T05:57:51.920Z,18
2022-08-28T05:59:02.027Z,18
2022-08-28T06:00:12.146Z,17.9
2022-08-28T06:01:22.526Z,17.9
2022-08-28T06:02:32.372Z,17.9
2022-08-28T06:03:42.500Z,17.9
2022-08-28T06:04:52.608Z,18
2022-08-28T06:06:02.731Z,18
2022-08-28T06:07:12.859Z,17.9
2022-08-28T06:08:21.989Z,17.9
2022-08-28T06:09:32.103Z,18
2022-08-28T06:10:42.225Z,18
2022-08-28T06:11:52.331Z,18.1
2022-08-28T06:13:02.452Z,18
2022-08-28T06:14:12.832Z,18
2022-08-28T06:15:22.687Z,17.9
2022-08-28T06:16:33.068Z,17.9
2022-08-28T06:17:42.917Z,18
2022-08-28T06:18:53.313Z,18
2022-08-28T06:20:03.154Z,18
2022-08-28T06:21:13.536Z,18
2022-08-28T06:22:23.397Z,18
2022-08-28T06:23:32.524Z,18.1
2022-08-28T06:24:42.643Z,18.1
2022-08-28T06:25:53.027Z,18
2022-08-28T06:27:02.876Z,18.1
2022-08-28T06:28:13.265Z,18.1
2022-08-28T06:30:33.240Z,18.1
2022-08-28T06:31:43.363Z,18.2
2022-08-28T06:32:53.470Z,18.2
2022-08-28T06:34:03.595Z,18.3
2022-08-28T06:35:13.710Z,18.4
2022-08-28T06:37:33.946Z,18.5
2022-08-28T06:38:43.088Z,18.7
2022-08-28T06:39:53.191Z,18.9
2022-08-28T06:41:03.310Z,19.1
2022-08-28T06:42:13.438Z,19.2
2022-08-28T06:43:23.560Z,19.1
2022-08-28T06:44:33.666Z,19.1
2022-08-28T06:45:43.790Z,19.4
2022-08-28T06:46:53.913Z,19.4
2022-08-28T06:48:04.020Z,19.5
2022-08-28T06:49:14.138Z,19.5
2022-08-28T06:51:34.369Z,19.4
2022-08-28T06:52:43.510Z,19.4
2022-08-28T06:53:52.644Z,19.3
2022-08-28T06:55:03.029Z,19.2
2022-08-28T06:56:12.887Z,19.2
2022-08-28T06:58:33.119Z,18.9
2022-08-28T06:59:43.231Z,19
2022-08-28T07:00:53.618Z,19.1
2022-08-28T07:02:03.466Z,19.2
2022-08-28T07:03:13.594Z,19.4
2022-08-28T07:04:23.703Z,19.5
2022-08-28T07:05:34.085Z,19.5
2022-08-28T07:06:43.941Z,19.4
2022-08-28T07:07:54.322Z,19.3
2022-08-28T07:09:03.204Z,19.3
2022-08-28T07:10:13.325Z,19.3
2022-08-28T07:11:23.439Z,19.2
2022-08-28T07:12:33.548Z,19.2
2022-08-28T07:13:43.669Z,19.2
2022-08-28T07:14:53.781Z,19.2
2022-08-28T07:16:03.902Z,19.2
2022-08-28T07:17:14.015Z,19.1
2022-08-28T07:18:23.431Z,19.1
2022-08-28T07:19:32.561Z,19.1
2022-08-28T07:20:42.412Z,19.1
2022-08-28T07:21:52.533Z,19.1
2022-08-28T07:23:02.648Z,19.1
2022-08-28T07:24:12.773Z,19.2
2022-08-28T07:25:22.898Z,19.1
2022-08-28T07:27:43.392Z,19.1
2022-08-28T07:28:53.237Z,19.1
2022-08-28T07:30:03.624Z,19
2022-08-28T07:31:13.472Z,18.9
2022-08-28T07:32:23.591Z,18.9
2022-08-28T07:33:33.717Z,18.9
2022-08-28T07:34:42.857Z,18.9
2022-08-28T07:35:52.962Z,19
2022-08-28T07:37:03.083Z,19.2
2022-08-28T07:38:13.193Z,19.5
2022-08-28T07:39:23.327Z,19.7
2022-08-28T07:40:33.436Z,19.9
2022-08-28T07:42:53.667Z,20.2
2022-08-28T07:44:03.788Z,20.4
2022-08-28T07:45:13.909Z,20.5
2022-08-28T07:47:34.134Z,20.9
2022-08-28T07:48:43.282Z,21.4
2022-08-28T07:49:52.430Z,21.4
2022-08-28T07:51:02.539Z,21.5
2022-08-28T07:52:12.653Z,21.3
2022-08-28T07:53:22.776Z,20.9
2022-08-28T07:54:32.883Z,20.4
2022-08-28T07:55:43.007Z,20.2
2022-08-28T07:56:53.126Z,20
2022-08-28T07:58:03.246Z,19.9
2022-08-28T07:59:13.354Z,19.8
2022-08-28T08:00:23.483Z,19.7
2022-08-28T08:01:32.614Z,19.7
2022-08-28T08:02:41.755Z,19.6
2022-08-28T08:03:51.872Z,19.7
2022-08-28T08:05:01.992Z,19.8
2022-08-28T08:06:12.370Z,20
2022-08-28T08:07:22.235Z,20.2
2022-08-28T08:08:32.611Z,20.3
2022-08-28T08:09:42.468Z,20.1
2022-08-28T08:10:52.576Z,19.9
2022-08-28T08:12:03.038Z,19.9
2022-08-28T08:13:12.811Z,19.9
2022-08-28T08:14:22.932Z,19.8
2022-08-28T08:15:33.051Z,19.9
2022-08-28T08:16:43.167Z,19.7
2022-08-28T08:17:52.289Z,19.9
2022-08-28T08:19:02.410Z,19.8
2022-08-28T08:20:12.531Z,19.7
2022-08-28T08:22:32.762Z,19.2
2022-08-28T08:23:42.889Z,19.4
2022-08-28T08:24:52.993Z,19.5
2022-08-28T08:26:03.120Z,19.8
2022-08-28T08:27:13.231Z,20.1
2022-08-28T08:29:33.482Z,20.6
2022-08-28T08:30:43.590Z,20.9
2022-08-28T08:31:53.717Z,20.6
2022-08-28T08:33:02.834Z,20.3
2022-08-28T08:34:12.961Z,20.2
2022-08-28T08:35:23.069Z,19.9
2022-08-28T08:36:33.201Z,19.8
2022-08-28T08:37:43.308Z,19.7
2022-08-28T08:38:53.691Z,19.5
2022-08-28T08:40:03.541Z,19.5
2022-08-28T08:41:13.667Z,19.5
2022-08-28T08:42:23.788Z,19.5
2022-08-28T08:43:33.895Z,19.4
2022-08-28T08:44:44.024Z,19.3
2022-08-28T08:45:54.132Z,19.3
2022-08-28T08:47:04.255Z,19.2
2022-08-28T08:48:13.645Z,19.1
2022-08-28T08:50:33.877Z,18.9
2022-08-28T08:51:43.736Z,18.8
2022-08-28T08:52:53.864Z,18.8
2022-08-28T08:54:03.969Z,18.8
2022-08-28T08:55:14.094Z,18.8
2022-08-28T08:56:24.214Z,18.9
2022-08-28T08:57:34.336Z,18.8
2022-08-28T08:58:44.435Z,18.9
2022-08-28T08:59:54.565Z,19
2022-08-28T09:01:04.684Z,19.2
2022-08-28T09:02:15.059Z,19.3
2022-08-28T09:04:34.047Z,19.3
2022-08-28T09:05:44.157Z,19.3
2022-08-28T09:06:54.284Z,19.1
2022-08-28T09:08:04.408Z,19.1
2022-08-28T09:09:14.518Z,19
2022-08-28T09:10:24.644Z,19.1
2022-08-28T09:11:35.015Z,19.2
2022-08-28T09:12:44.873Z,19.4
2022-08-28T09:13:55.251Z,19.6
2022-08-28T09:15:05.108Z,19.6
2022-08-28T09:16:15.490Z,19.5
2022-08-28T09:17:25.351Z,19.4
2022-08-28T09:18:34.468Z,19.3
2022-08-28T09:19:44.600Z,19.1
2022-08-28T09:20:54.705Z,18.9
2022-08-28T09:22:04.836Z,18.9
2022-08-28T09:23:14.951Z,19
2022-08-28T09:24:25.059Z,19
2022-08-28T09:25:35.178Z,19
2022-08-28T09:26:45.305Z,19.1
2022-08-28T09:27:55.413Z,19.2
2022-08-28T09:29:05.525Z,19.3
2022-08-28T09:30:15.650Z,19.2
2022-08-28T09:32:35.882Z,19.6
2022-08-28T09:33:45.024Z,19.7
2022-08-28T09:34:55.149Z,19.7
2022-08-28T09:36:05.248Z,19.8
2022-08-28T09:37:15.374Z,20.1
2022-08-28T09:38:25.493Z,20.2
2022-08-28T09:39:35.600Z,20.3
2022-08-28T09:40:45.717Z,20.3
2022-08-28T09:41:55.838Z,20.3
2022-08-28T09:43:05.965Z,20.3
2022-08-28T09:44:16.071Z,20.4
2022-08-28T09:46:36.304Z,20.7
2022-08-28T09:47:45.441Z,20.6
2022-08-28T09:48:55.567Z,20.4
2022-08-28T09:50:05.690Z,20.3
2022-08-28T09:51:15.797Z,20.3
2022-08-28T09:52:25.930Z,20.1
2022-08-28T09:53:36.030Z,20.1
2022-08-28T09:54:46.158Z,19.9
2022-08-28T09:55:56.268Z,19.5
2022-08-28T09:58:16.501Z,19.5
2022-08-28T10:00:36.736Z,19.7
2022-08-28T10:01:45.892Z,19.6
2022-08-28T10:02:55.027Z,19.6
2022-08-28T10:04:05.132Z,19.6
2022-08-28T10:05:15.245Z,19.6
2022-08-28T10:07:35.480Z,19.9
2022-08-28T10:08:45.606Z,20
2022-08-28T10:09:55.730Z,19.8
2022-08-28T10:11:05.835Z,19.6
2022-08-28T10:12:15.966Z,19.7
2022-08-28T10:14:36.185Z,19.5
2022-08-28T10:15:46.307Z,19.6
2022-08-28T10:16:55.457Z,19.7
2022-08-28T10:18:04.592Z,19.7
2022-08-28T10:19:14.703Z,19.6
2022-08-28T10:20:24.829Z,19.6
2022-08-28T10:21:34.933Z,19.5
2022-08-28T10:22:45.049Z,19.6
2022-08-28T10:23:55.175Z,19.7
2022-08-28T10:25:05.551Z,19.6
2022-08-28T10:26:15.409Z,19.6
2022-08-28T10:27:25.536Z,19.7
2022-08-28T10:28:35.654Z,19.7
2022-08-28T10:29:44.786Z,19.8
2022-08-28T10:30:53.925Z,19.7
2022-08-28T10:32:04.030Z,19.7
2022-08-28T10:33:14.156Z,19.6
2022-08-28T10:35:34.386Z,19.4
2022-08-28T10:36:44.510Z,19.3
2022-08-28T10:37:54.616Z,19.3
2022-08-28T10:39:04.746Z,19.2
2022-08-28T10:40:14.853Z,19.3
2022-08-28T10:42:35.099Z,19.4
2022-08-28T10:43:45.206Z,19.5
2022-08-28T10:46:04.472Z,19.6
2022-08-28T10:47:13.628Z,19.7
2022-08-28T10:49:32.878Z,19.8
2022-08-28T10:50:42.988Z,19.6
2022-08-28T10:51:53.105Z,19.6
2022-08-28T10:53:03.490Z,19.7
2022-08-28T10:54:13.599Z,19.7
2022-08-28T10:55:23.459Z,19.8
2022-08-28T10:56:33.836Z,19.8
2022-08-28T10:57:43.691Z,19.6
2022-08-28T10:58:53.800Z,19.7
2022-08-28T11:00:03.930Z,19.8
2022-08-28T11:01:13.067Z,19.9
2022-08-28T11:03:32.326Z,19.9
2022-08-28T11:04:42.446Z,19.9
2022-08-28T11:05:52.547Z,20
2022-08-28T11:07:02.935Z,20.1
2022-08-28T11:08:12.798Z,20.1
2022-08-28T11:09:22.899Z,20.1
2022-08-28T11:10:33.023Z,20.1
2022-08-28T11:11:43.143Z,20.1
2022-08-28T11:12:53.520Z,20.1
2022-08-28T11:14:03.378Z,19.9
2022-08-28T11:15:12.775Z,20.1
2022-08-28T11:17:31.775Z,20.5
2022-08-28T11:18:41.896Z,20.5
2022-08-28T11:19:52.005Z,20.7
2022-08-28T11:21:02.136Z,20.7
2022-08-28T11:22:12.246Z,20.6
2022-08-28T11:23:22.616Z,20.6
2022-08-28T11:24:32.480Z,20.6
2022-08-28T11:25:42.587Z,20.5
2022-08-28T11:26:52.714Z,20.9
2022-08-28T11:28:02.834Z,21
2022-08-28T11:29:12.938Z,21.2
2022-08-28T11:30:23.068Z,21.2
2022-08-28T11:31:32.189Z,21.2
2022-08-28T11:32:42.315Z,21.2
2022-08-28T11:33:52.425Z,21.1
2022-08-28T11:35:02.549Z,21
2022-08-28T11:36:12.671Z,20.8
2022-08-28T11:38:33.157Z,20.9
2022-08-28T11:39:43.020Z,20.9
2022-08-28T11:40:53.394Z,20.8
2022-08-28T11:42:03.248Z,20.9
2022-08-28T11:43:13.378Z,21
2022-08-28T11:44:23.492Z,21
2022-08-28T11:45:33.858Z,21
2022-08-28T11:46:42.725Z,20.8
2022-08-28T11:47:52.844Z,20.7
2022-08-28T11:49:02.968Z,20.6
2022-08-28T11:50:13.094Z,20.7
2022-08-28T11:51:23.204Z,20.6
2022-08-28T11:52:33.578Z,20.5
2022-08-28T11:53:43.435Z,20.6
2022-08-28T11:54:53.562Z,20.6
2022-08-28T11:56:03.671Z,20.5
2022-08-28T11:57:13.791Z,20.4
2022-08-28T11:58:23.915Z,20.6
2022-08-28T11:59:34.019Z,20.7
2022-08-28T12:00:44.148Z,20.5
2022-08-28T12:01:53.536Z,20.6
2022-08-28T12:03:03.389Z,20.7
2022-08-28T12:04:13.789Z,21
2022-08-28T12:05:23.639Z,21.3
2022-08-28T12:06:33.738Z,21.6
2022-08-28T12:07:43.871Z,21.9
2022-08-28T12:08:53.982Z,22.2
2022-08-28T12:10:04.089Z,22.4
2022-08-28T12:11:14.218Z,22.6
2022-08-28T12:12:24.329Z,22.6
2022-08-28T12:13:34.441Z,22.6
2022-08-28T12:14:44.561Z,22.5
2022-08-28T12:15:54.686Z,22.3
2022-08-28T12:17:03.822Z,22.4
2022-08-28T12:18:13.943Z,22.3
2022-08-28T12:19:24.049Z,22.1
2022-08-28T12:20:34.175Z,22
2022-08-28T12:21:44.282Z,21.9
2022-08-28T12:22:54.412Z,21.8
2022-08-28T12:24:04.517Z,21.6
2022-08-28T12:25:14.642Z,21.5
2022-08-28T12:26:24.752Z,21.6
2022-08-28T12:27:35.126Z,21.7
2022-08-28T12:28:44.988Z,21.7
2022-08-28T12:29:55.112Z,21.9
2022-08-28T12:31:05.489Z,21.9
2022-08-28T12:32:15.348Z,22
2022-08-28T12:33:24.467Z,22.3
2022-08-28T12:34:34.596Z,22.5
2022-08-28T12:35:44.703Z,22.6
2022-08-28T12:36:54.824Z,22.3
2022-08-28T12:39:15.067Z,22.2
2022-08-28T12:41:35.301Z,21.7
2022-08-28T12:42:45.407Z,21.5
2022-08-28T12:43:55.785Z,21.7
2022-08-28T12:45:05.648Z,22
2022-08-28T12:46:15.776Z,21.9
2022-08-28T12:47:25.883Z,22.1
2022-08-28T12:48:35.273Z,22.1
2022-08-28T12:49:45.124Z,22
2022-08-28T12:50:55.250Z,21.7
2022-08-28T12:52:05.365Z,21.8
2022-08-28T12:53:15.494Z,21.8
2022-08-28T12:55:35.726Z,22
2022-08-28T12:56:44.866Z,22.2
2022-08-28T12:57:54.000Z,22.2
2022-08-28T12:59:04.112Z,22.3
2022-08-28T13:00:14.236Z,22.4
2022-08-28T13:02:34.462Z,22.3
2022-08-28T13:03:44.588Z,22.2
2022-08-28T13:04:54.696Z,21.7
2022-08-28T13:06:04.823Z,21.7
2022-08-28T13:07:14.946Z,21.5
2022-08-28T13:09:35.431Z,21.5
2022-08-28T13:10:45.293Z,21.4
2022-08-28T13:11:54.437Z,21.6
2022-08-28T13:13:03.556Z,21.8
2022-08-28T13:14:13.678Z,21.9
2022-08-28T13:15:23.802Z,22
2022-08-28T13:16:33.925Z,22
2022-08-28T13:17:44.038Z,22.1
2022-08-28T13:18:54.145Z,22
2022-08-28T13:20:04.270Z,22.2
2022-08-28T13:21:14.380Z,22.3
2022-08-28T13:23:34.616Z,22.5
2022-08-28T13:24:44.741Z,22.3
2022-08-28T13:25:54.864Z,22.4
2022-08-28T13:27:04.980Z,22.4
2022-08-28T13:28:14.116Z,22.3
2022-08-28T13:30:34.341Z,22.3
2022-08-28T13:31:44.464Z,22.4
2022-08-28T13:32:54.833Z,22.6
2022-08-28T13:34:04.689Z,22.5
2022-08-28T13:35:15.062Z,22.6
2022-08-28T13:37:35.046Z,22.5
2022-08-28T13:38:45.159Z,22.4
2022-08-28T13:39:55.537Z,22.4
2022-08-28T13:42:15.505Z,22.6
2022-08-28T13:43:24.657Z,22.5
2022-08-28T13:44:34.771Z,22.5
2022-08-28T13:45:44.882Z,22.6
2022-08-28T13:46:54.997Z,22.7
2022-08-28T13:48:05.120Z,22.7
2022-08-28T13:49:15.248Z,22.5
2022-08-28T13:50:25.354Z,22.2
2022-08-28T13:51:35.465Z,21.9
2022-08-28T13:52:45.594Z,22
2022-08-28T13:53:55.699Z,22.1
2022-08-28T13:55:06.082Z,22.1
2022-08-28T13:56:15.948Z,22.2
2022-08-28T13:57:26.054Z,22.4
2022-08-28T13:58:35.189Z,22.6
2022-08-28T13:59:45.314Z,22.7
2022-08-28T14:00:55.434Z,22.6
2022-08-28T14:02:04.564Z,22.6
2022-08-28T14:03:13.716Z,22.7
2022-08-28T14:04:23.821Z,22.4
2022-08-28T14:05:33.949Z,22.1
2022-08-28T14:06:44.055Z,22.2
2022-08-28T14:07:54.435Z,22.4
2022-08-28T14:09:04.290Z,22.4
2022-08-28T14:10:14.665Z,22.5
2022-08-28T14:12:34.643Z,22.5
2022-08-28T14:13:44.770Z,22.7
2022-08-28T14:14:54.874Z,22.6
2022-08-28T14:16:05.002Z,22.5
2022-08-28T14:17:15.105Z,22.6
2022-08-28T14:19:34.622Z,22.8
2022-08-28T14:20:43.499Z,22.8
2022-08-28T14:21:52.901Z,22.9
2022-08-28T14:23:02.750Z,23.3
2022-08-28T14:24:13.132Z,23.7
2022-08-28T14:25:22.985Z,24.5
2022-08-28T14:26:33.112Z,25
2022-08-28T14:27:43.222Z,25.2
2022-08-28T14:28:53.342Z,25.6
2022-08-28T14:30:03.719Z,25.5
2022-08-28T14:31:13.566Z,25.3
2022-08-28T14:33:33.809Z,26.5
2022-08-28T14:34:43.933Z,26.7
2022-08-28T14:35:54.309Z,26.9
2022-08-28T14:37:03.174Z,27
2022-08-28T14:38:13.300Z,27.6
2022-08-28T14:40:33.539Z,27.2
2022-08-28T14:41:43.639Z,27.5
2022-08-28T14:42:53.768Z,27.2
2022-08-28T14:44:03.873Z,27.5
2022-08-28T14:45:13.998Z,27.9
2022-08-28T14:47:34.240Z,27.1
2022-08-28T14:48:44.361Z,27.3
2022-08-28T14:49:54.475Z,27.3
2022-08-28T14:51:04.582Z,27.8
2022-08-28T14:52:13.721Z,27.4
2022-08-28T14:53:23.833Z,27.2
2022-08-28T14:54:33.948Z,27.4
2022-08-28T14:55:44.075Z,27.5
2022-08-28T14:56:54.443Z,27.9
2022-08-28T14:58:04.316Z,26.8
2022-08-28T14:59:14.421Z,25.5
2022-08-28T15:00:24.543Z,26.2
2022-08-28T15:01:34.660Z,27
2022-08-28T15:02:44.765Z,27.9
2022-08-28T15:03:54.891Z,28.3
2022-08-28T15:05:04.030Z,28.8
2022-08-28T15:06:13.169Z,28.4
2022-08-28T15:07:23.297Z,27.8
2022-08-28T15:08:33.397Z,27.6
2022-08-28T15:09:43.522Z,28.3
2022-08-28T15:10:53.900Z,28.5
2022-08-28T15:12:04.012Z,28
2022-08-28T15:13:13.885Z,27.8
2022-08-28T15:15:34.368Z,28.1
2022-08-28T15:16:44.218Z,27.9
2022-08-28T15:17:54.342Z,28
2022-08-28T15:19:04.470Z,28.2
2022-08-28T15:20:14.837Z,28.6
2022-08-28T15:21:23.724Z,28.7
2022-08-28T15:22:33.824Z,28.4
2022-08-28T15:23:43.951Z,29.1
2022-08-28T15:24:54.071Z,28.9
2022-08-28T15:26:04.180Z,28.7
2022-08-28T15:27:14.296Z,27.9
2022-08-28T15:28:24.419Z,27.4
2022-08-28T15:29:34.803Z,28.1
2022-08-28T15:30:43.683Z,28.7
2022-08-28T15:31:52.820Z,28.6
2022-08-28T15:33:02.936Z,28.5
2022-08-28T15:34:13.312Z,28.5
2022-08-28T15:36:33.283Z,28
2022-08-28T15:37:43.407Z,28.2
2022-08-28T15:38:53.783Z,29
2022-08-28T15:40:03.899Z,29.3
2022-08-28T15:41:14.020Z,28.7
2022-08-28T15:42:23.875Z,28.7
2022-08-28T15:43:33.991Z,28.2
2022-08-28T15:44:44.118Z,28.3
2022-08-28T15:45:54.229Z,28.5
2022-08-28T15:47:03.361Z,28.7
2022-08-28T15:48:13.486Z,28.1
2022-08-28T15:49:23.593Z,28.1
2022-08-28T15:50:33.969Z,28.5
2022-08-28T15:51:43.827Z,28.9
2022-08-28T15:52:53.945Z,29
2022-08-28T15:54:04.073Z,29
2022-08-28T15:55:14.446Z,28.5
2022-08-28T15:57:34.432Z,28.8
2022-08-28T15:58:44.535Z,28.7
2022-08-28T15:59:54.654Z,29
2022-08-28T16:01:04.778Z,28.5
2022-08-28T16:02:14.163Z,28.4
2022-08-28T16:03:24.019Z,28.7
2022-08-28T16:04:34.140Z,27.7
2022-08-28T16:05:44.259Z,27.9
2022-08-28T16:06:54.635Z,27.5
2022-08-28T16:08:04.495Z,26.6
2022-08-28T16:09:14.618Z,26.3
2022-08-28T16:10:24.740Z,26.8
2022-08-28T16:11:34.855Z,27.3
2022-08-28T16:12:44.963Z,27.6
2022-08-28T16:13:55.348Z,28.1
2022-08-28T16:15:05.203Z,27.8
2022-08-28T16:16:15.587Z,28.4
2022-08-28T16:17:24.454Z,28.8
2022-08-28T16:18:34.832Z,28.5
2022-08-28T16:19:44.949Z,27.2
2022-08-28T16:20:54.809Z,26.3
2022-08-28T16:22:04.924Z,25.8
2022-08-28T16:23:15.057Z,25.7
2022-08-28T16:25:35.536Z,24.7
2022-08-28T16:26:45.405Z,24.6
2022-08-28T16:27:55.510Z,24.4
2022-08-28T16:29:05.640Z,24.6
2022-08-28T16:30:16.004Z,24.6
2022-08-28T16:31:25.866Z,25.2
2022-08-28T16:32:35.014Z,25.7
2022-08-28T16:33:45.116Z,26.1
2022-08-28T16:34:55.245Z,26.2
2022-08-28T16:36:05.350Z,26.7
2022-08-28T16:37:15.470Z,26.4
2022-08-28T16:39:35.960Z,25.8
2022-08-28T16:40:46.086Z,26.2
2022-08-28T16:41:55.944Z,25.7
2022-08-28T16:43:06.067Z,25.3
2022-08-28T16:44:16.176Z,25.2
2022-08-28T16:45:26.306Z,25.3
2022-08-28T16:46:36.415Z,25.3
2022-08-28T16:47:45.550Z,25.6